Watkins Glen, New York
Current Conditions -  °F | °C
As of 12:53 PM on Wednesday 28 Jan 2015 (Local Time) from KELM Reporting Station
Clear Clear  
Wind Chill: -6°   Ceiling: Unl
Heat Index: -3°   Visibility: 10mi
Dew Point: -17°   Wind: 6mph
Humidity: 34%   Direction: NA
Pressure: 30.19"   Gusts: 22mph
Location:  42.38°N, 76.87°W
Report Text: KELM 281753Z VRB05G19KT 10SM CLR M03/M17 A3019 RMK AO2 SLP239 T10281167 11028 21228 58005
Loading
Personal Weather Stations






























Interactive Weather Map New forecast layout! Learn more

10-Day Weather Forecast

Advertisements
Track Severe Weather on mobile